sensor_id;sensor_type;location;lat;lon;timestamp;temperature;humidity
7046;DHT22;3564;53.326;10.356;2022-10-10T00:01:11;12.50;97.70
7046;DHT22;3564;53.326;10.356;2022-10-10T00:03:37;12.50;97.70
7046;DHT22;3564;53.326;10.356;2022-10-10T00:06:03;12.40;97.70
7046;DHT22;3564;53.326;10.356;2022-10-10T00:08:28;12.40;97.70
7046;DHT22;3564;53.326;10.356;2022-10-10T00:10:54;12.40;97.70
7046;DHT22;3564;53.326;10.356;2022-10-10T00:13:20;12.30;97.70
7046;DHT22;3564;53.326;10.356;2022-10-10T00:15:46;12.40;97.70
7046;DHT22;3564;53.326;10.356;2022-10-10T00:18:11;12.30;97.60
7046;DHT22;3564;53.326;10.356;2022-10-10T00:20:37;12.30;97.60
7046;DHT22;3564;53.326;10.356;2022-10-10T00:23:03;12.30;97.70
7046;DHT22;3564;53.326;10.356;2022-10-10T00:25:28;12.30;97.70
7046;DHT22;3564;53.326;10.356;2022-10-10T00:27:54;12.20;97.70
7046;DHT22;3564;53.326;10.356;2022-10-10T00:30:19;12.20;97.80
7046;DHT22;3564;53.326;10.356;2022-10-10T00:32:45;12.20;97.80
7046;DHT22;3564;53.326;10.356;2022-10-10T00:35:11;12.10;97.80
7046;DHT22;3564;53.326;10.356;2022-10-10T00:37:37;12.20;97.80
7046;DHT22;3564;53.326;10.356;2022-10-10T00:40:04;12.20;97.80
7046;DHT22;3564;53.326;10.356;2022-10-10T00:42:30;12.10;97.80
7046;DHT22;3564;53.326;10.356;2022-10-10T00:45:31;12.10;97.80
7046;DHT22;3564;53.326;10.356;2022-10-10T00:50:56;12.00;97.70
7046;DHT22;3564;53.326;10.356;2022-10-10T00:53:26;12.00;97.80
7046;DHT22;3564;53.326;10.356;2022-10-10T00:55:53;12.00;97.80
7046;DHT22;3564;53.326;10.356;2022-10-10T00:58:20;12.00;97.80
7046;DHT22;3564;53.326;10.356;2022-10-10T01:00:46;12.00;97.80
7046;DHT22;3564;53.326;10.356;2022-10-10T01:03:11;11.90;97.80
7046;DHT22;3564;53.326;10.356;2022-10-10T01:05:38;12.00;97.90
7046;DHT22;3564;53.326;10.356;2022-10-10T01:08:05;11.90;97.70
7046;DHT22;3564;53.326;10.356;2022-10-10T01:10:38;11.90;97.70
7046;DHT22;3564;53.326;10.356;2022-10-10T01:13:41;11.80;97.80
7046;DHT22;3564;53.326;10.356;2022-10-10T01:30:57;11.70;97.90
7046;DHT22;3564;53.326;10.356;2022-10-10T01:33:31;11.70;98.00
7046;DHT22;3564;53.326;10.356;2022-10-10T01:36:14;11.70;98.00
7046;DHT22;3564;53.326;10.356;2022-10-10T01:38:48;11.70;98.00
7046;DHT22;3564;53.326;10.356;2022-10-10T01:41:20;11.70;98.00
7046;DHT22;3564;53.326;10.356;2022-10-10T01:43:55;11.70;98.00
7046;DHT22;3564;53.326;10.356;2022-10-10T01:46:21;11.70;98.00
7046;DHT22;3564;53.326;10.356;2022-10-10T01:48:48;11.70;97.90
7046;DHT22;3564;53.326;10.356;2022-10-10T01:59:45;11.60;97.90
7046;DHT22;3564;53.326;10.356;2022-10-10T02:04:48;11.60;97.90
7046;DHT22;3564;53.326;10.356;2022-10-10T02:07:20;11.60;97.90
7046;DHT22;3564;53.326;10.356;2022-10-10T02:09:51;11.60;97.80
7046;DHT22;3564;53.326;10.356;2022-10-10T02:12:18;11.60;97.80
7046;DHT22;3564;53.326;10.356;2022-10-10T02:14:50;11.50;97.70
7046;DHT22;3564;53.326;10.356;2022-10-10T02:17:19;11.40;97.90
7046;DHT22;3564;53.326;10.356;2022-10-10T02:19:52;11.40;97.90
7046;DHT22;3564;53.326;10.356;2022-10-10T02:22:19;11.40;97.90
7046;DHT22;3564;53.326;10.356;2022-10-10T02:24:47;11.40;97.90
7046;DHT22;3564;53.326;10.356;2022-10-10T02:29:57;11.40;97.90
7046;DHT22;3564;53.326;10.356;2022-10-10T02:34:55;11.40;97.90
7046;DHT22;3564;53.326;10.356;2022-10-10T02:37:22;11.40;98.00
7046;DHT22;3564;53.326;10.356;2022-10-10T02:39:52;11.30;98.00
7046;DHT22;3564;53.326;10.356;2022-10-10T02:42:20;11.40;98.20
7046;DHT22;3564;53.326;10.356;2022-10-10T02:44:47;11.40;98.20
7046;DHT22;3564;53.326;10.356;2022-10-10T02:47:13;11.40;97.90
7046;DHT22;3564;53.326;10.356;2022-10-10T02:49:39;11.40;97.80
7046;DHT22;3564;53.326;10.356;2022-10-10T02:52:05;11.40;97.80
7046;DHT22;3564;53.326;10.356;2022-10-10T02:54:31;11.40;97.70
7046;DHT22;3564;53.326;10.356;2022-10-10T02:56:57;11.30;97.60
7046;DHT22;3564;53.326;10.356;2022-10-10T02:59:23;11.30;97.70
7046;DHT22;3564;53.326;10.356;2022-10-10T03:01:48;11.30;97.60
7046;DHT22;3564;53.326;10.356;2022-10-10T03:04:15;11.20;97.70
7046;DHT22;3564;53.326;10.356;2022-10-10T03:06:40;11.20;97.70
7046;DHT22;3564;53.326;10.356;2022-10-10T03:09:06;11.20;97.80
7046;DHT22;3564;53.326;10.356;2022-10-10T03:11:32;11.20;97.90
7046;DHT22;3564;53.326;10.356;2022-10-10T03:13:57;11.20;98.00
7046;DHT22;3564;53.326;10.356;2022-10-10T03:16:23;11.20;98.10
7046;DHT22;3564;53.326;10.356;2022-10-10T03:18:48;11.20;98.10
7046;DHT22;3564;53.326;10.356;2022-10-10T03:21:14;11.20;98.20
7046;DHT22;3564;53.326;10.356;2022-10-10T03:23:40;11.20;98.30
7046;DHT22;3564;53.326;10.356;2022-10-10T03:26:06;11.20;98.40
7046;DHT22;3564;53.326;10.356;2022-10-10T03:28:31;11.20;98.50
7046;DHT22;3564;53.326;10.356;2022-10-10T03:30:57;11.20;98.50
7046;DHT22;3564;53.326;10.356;2022-10-10T03:33:22;11.20;98.50
7046;DHT22;3564;53.326;10.356;2022-10-10T03:35:48;11.20;98.60
7046;DHT22;3564;53.326;10.356;2022-10-10T03:38:14;11.20;98.60
7046;DHT22;3564;53.326;10.356;2022-10-10T03:40:41;11.20;98.60
7046;DHT22;3564;53.326;10.356;2022-10-10T03:43:08;11.20;98.70
7046;DHT22;3564;53.326;10.356;2022-10-10T03:45:35;11.20;98.70
7046;DHT22;3564;53.326;10.356;2022-10-10T03:48:01;11.20;98.70
7046;DHT22;3564;53.326;10.356;2022-10-10T03:50:27;11.20;98.70
7046;DHT22;3564;53.326;10.356;2022-10-10T03:52:53;11.20;98.70
7046;DHT22;3564;53.326;10.356;2022-10-10T03:55:18;11.30;98.80
7046;DHT22;3564;53.326;10.356;2022-10-10T03:57:44;11.20;98.70
7046;DHT22;3564;53.326;10.356;2022-10-10T04:00:10;11.30;98.80
7046;DHT22;3564;53.326;10.356;2022-10-10T04:02:36;11.20;98.80
7046;DHT22;3564;53.326;10.356;2022-10-10T04:05:02;11.20;98.80
7046;DHT22;3564;53.326;10.356;2022-10-10T04:07:28;11.20;98.90
7046;DHT22;3564;53.326;10.356;2022-10-10T04:09:54;11.30;98.90
7046;DHT22;3564;53.326;10.356;2022-10-10T04:12:19;11.20;98.90
7046;DHT22;3564;53.326;10.356;2022-10-10T04:14:45;11.20;98.80
7046;DHT22;3564;53.326;10.356;2022-10-10T04:17:10;11.30;98.90
7046;DHT22;3564;53.326;10.356;2022-10-10T04:19:36;11.30;98.90
7046;DHT22;3564;53.326;10.356;2022-10-10T04:22:01;11.30;98.90
7046;DHT22;3564;53.326;10.356;2022-10-10T04:24:27;11.20;98.80
7046;DHT22;3564;53.326;10.356;2022-10-10T04:26:52;11.20;98.80
7046;DHT22;3564;53.326;10.356;2022-10-10T04:29:18;11.30;98.80
7046;DHT22;3564;53.326;10.356;2022-10-10T04:31:44;11.30;98.80
7046;DHT22;3564;53.326;10.356;2022-10-10T04:34:09;11.20;98.70
7046;DHT22;3564;53.326;10.356;2022-10-10T04:36:35;11.20;98.80
7046;DHT22;3564;53.326;10.356;2022-10-10T04:39:01;11.20;98.70
7046;DHT22;3564;53.326;10.356;2022-10-10T04:41:27;11.20;98.80
7046;DHT22;3564;53.326;10.356;2022-10-10T04:43:52;11.20;98.80
7046;DHT22;3564;53.326;10.356;2022-10-10T04:46:18;11.20;98.90
7046;DHT22;3564;53.326;10.356;2022-10-10T04:48:43;11.10;98.80
7046;DHT22;3564;53.326;10.356;2022-10-10T04:51:09;11.20;98.90
7046;DHT22;3564;53.326;10.356;2022-10-10T04:53:34;11.20;98.90
7046;DHT22;3564;53.326;10.356;2022-10-10T04:56:00;11.20;98.90
7046;DHT22;3564;53.326;10.356;2022-10-10T04:58:26;11.20;98.90
7046;DHT22;3564;53.326;10.356;2022-10-10T05:00:52;11.20;98.90
7046;DHT22;3564;53.326;10.356;2022-10-10T05:03:19;11.20;98.80
7046;DHT22;3564;53.326;10.356;2022-10-10T05:05:44;11.20;98.90
7046;DHT22;3564;53.326;10.356;2022-10-10T05:08:10;11.20;98.90
7046;DHT22;3564;53.326;10.356;2022-10-10T05:10:36;11.20;99.10
7046;DHT22;3564;53.326;10.356;2022-10-10T05:13:06;11.20;98.90
7046;DHT22;3564;53.326;10.356;2022-10-10T05:15:35;11.20;98.90
7046;DHT22;3564;53.326;10.356;2022-10-10T05:18:01;11.20;98.90
7046;DHT22;3564;53.326;10.356;2022-10-10T05:20:29;11.20;98.90
7046;DHT22;3564;53.326;10.356;2022-10-10T05:22:54;11.20;98.90
7046;DHT22;3564;53.326;10.356;2022-10-10T05:25:20;11.20;99.20
7046;DHT22;3564;53.326;10.356;2022-10-10T05:27:45;11.20;98.90
7046;DHT22;3564;53.326;10.356;2022-10-10T05:30:11;11.20;99.00
7046;DHT22;3564;53.326;10.356;2022-10-10T05:32:37;11.20;99.00
7046;DHT22;3564;53.326;10.356;2022-10-10T05:35:04;11.20;99.00
7046;DHT22;3564;53.326;10.356;2022-10-10T05:37:31;11.20;99.00
7046;DHT22;3564;53.326;10.356;2022-10-10T05:39:56;11.20;99.00
7046;DHT22;3564;53.326;10.356;2022-10-10T05:42:22;11.20;98.90
7046;DHT22;3564;53.326;10.356;2022-10-10T05:44:47;11.20;98.90
7046;DHT22;3564;53.326;10.356;2022-10-10T05:47:13;11.20;98.90
7046;DHT22;3564;53.326;10.356;2022-10-10T05:49:39;11.20;99.00
7046;DHT22;3564;53.326;10.356;2022-10-10T05:52:04;11.20;99.00
7046;DHT22;3564;53.326;10.356;2022-10-10T05:54:30;11.20;99.00
7046;DHT22;3564;53.326;10.356;2022-10-10T05:56:55;11.20;99.00
7046;DHT22;3564;53.326;10.356;2022-10-10T05:59:21;11.20;98.90
7046;DHT22;3564;53.326;10.356;2022-10-10T06:01:48;11.20;98.90
7046;DHT22;3564;53.326;10.356;2022-10-10T06:04:13;11.10;98.90
7046;DHT22;3564;53.326;10.356;2022-10-10T06:06:39;11.20;99.00
7046;DHT22;3564;53.326;10.356;2022-10-10T06:09:05;11.20;99.00
7046;DHT22;3564;53.326;10.356;2022-10-10T06:11:31;11.10;99.10
7046;DHT22;3564;53.326;10.356;2022-10-10T06:13:56;11.20;99.20
7046;DHT22;3564;53.326;10.356;2022-10-10T06:16:24;11.10;99.20
7046;DHT22;3564;53.326;10.356;2022-10-10T06:18:50;11.10;99.30
7046;DHT22;3564;53.326;10.356;2022-10-10T06:21:16;11.20;99.40
7046;DHT22;3564;53.326;10.356;2022-10-10T06:23:42;11.20;99.40
7046;DHT22;3564;53.326;10.356;2022-10-10T06:26:08;11.20;99.50
7046;DHT22;3564;53.326;10.356;2022-10-10T06:28:34;11.20;99.50
7046;DHT22;3564;53.326;10.356;2022-10-10T06:31:01;11.20;99.50
7046;DHT22;3564;53.326;10.356;2022-10-10T06:33:27;11.20;99.50
7046;DHT22;3564;53.326;10.356;2022-10-10T06:35:53;11.20;99.50
7046;DHT22;3564;53.326;10.356;2022-10-10T06:38:18;11.20;99.50
7046;DHT22;3564;53.326;10.356;2022-10-10T06:40:45;11.30;99.50
7046;DHT22;3564;53.326;10.356;2022-10-10T06:43:13;11.20;99.40
7046;DHT22;3564;53.326;10.356;2022-10-10T06:45:41;11.30;99.50
7046;DHT22;3564;53.326;10.356;2022-10-10T06:48:08;11.20;99.50
7046;DHT22;3564;53.326;10.356;2022-10-10T06:50:34;11.30;99.50
7046;DHT22;3564;53.326;10.356;2022-10-10T06:53:00;11.30;99.60
7046;DHT22;3564;53.326;10.356;2022-10-10T06:55:26;11.30;99.60
7046;DHT22;3564;53.326;10.356;2022-10-10T06:57:52;11.30;99.60
7046;DHT22;3564;53.326;10.356;2022-10-10T07:00:18;11.40;99.70
7046;DHT22;3564;53.326;10.356;2022-10-10T07:02:45;11.40;99.70
7046;DHT22;3564;53.326;10.356;2022-10-10T07:05:13;11.30;99.60
7046;DHT22;3564;53.326;10.356;2022-10-10T07:07:41;11.30;99.70
7046;DHT22;3564;53.326;10.356;2022-10-10T07:10:09;11.40;99.70
7046;DHT22;3564;53.326;10.356;2022-10-10T07:12:36;11.40;99.70
7046;DHT22;3564;53.326;10.356;2022-10-10T07:15:04;11.40;99.70
7046;DHT22;3564;53.326;10.356;2022-10-10T07:17:29;11.40;99.80
7046;DHT22;3564;53.326;10.356;2022-10-10T07:19:55;11.50;99.90
7046;DHT22;3564;53.326;10.356;2022-10-10T07:22:21;11.50;99.90
7046;DHT22;3564;53.326;10.356;2022-10-10T07:24:47;11.50;99.90
7046;DHT22;3564;53.326;10.356;2022-10-10T07:27:12;11.50;99.90
7046;DHT22;3564;53.326;10.356;2022-10-10T07:29:38;11.60;99.90
7046;DHT22;3564;53.326;10.356;2022-10-10T07:32:04;11.60;99.90
7046;DHT22;3564;53.326;10.356;2022-10-10T07:34:30;11.60;99.90
7046;DHT22;3564;53.326;10.356;2022-10-10T07:36:56;11.60;99.90
7046;DHT22;3564;53.326;10.356;2022-10-10T07:39:22;11.60;99.90
7046;DHT22;3564;53.326;10.356;2022-10-10T07:41:49;11.60;99.90
7046;DHT22;3564;53.326;10.356;2022-10-10T07:44:16;11.70;99.90
7046;DHT22;3564;53.326;10.356;2022-10-10T07:46:43;11.70;99.90
7046;DHT22;3564;53.326;10.356;2022-10-10T07:49:09;11.80;99.90
7046;DHT22;3564;53.326;10.356;2022-10-10T07:51:35;11.80;99.90
7046;DHT22;3564;53.326;10.356;2022-10-10T07:54:03;11.90;99.90
7046;DHT22;3564;53.326;10.356;2022-10-10T07:56:30;11.90;99.90
7046;DHT22;3564;53.326;10.356;2022-10-10T07:58:55;11.90;99.90
7046;DHT22;3564;53.326;10.356;2022-10-10T08:01:21;12.00;99.90
7046;DHT22;3564;53.326;10.356;2022-10-10T08:03:46;12.00;99.90
7046;DHT22;3564;53.326;10.356;2022-10-10T08:06:14;12.10;99.90
7046;DHT22;3564;53.326;10.356;2022-10-10T08:08:41;12.10;99.90
7046;DHT22;3564;53.326;10.356;2022-10-10T08:11:08;12.20;99.90
7046;DHT22;3564;53.326;10.356;2022-10-10T08:13:36;12.30;99.90
7046;DHT22;3564;53.326;10.356;2022-10-10T08:16:03;12.30;99.90
7046;DHT22;3564;53.326;10.356;2022-10-10T08:18:28;12.30;99.90
7046;DHT22;3564;53.326;10.356;2022-10-10T08:21:02;12.40;99.90
7046;DHT22;3564;53.326;10.356;2022-10-10T08:23:27;12.40;99.90
7046;DHT22;3564;53.326;10.356;2022-10-10T08:25:55;12.50;99.90
7046;DHT22;3564;53.326;10.356;2022-10-10T08:28:22;12.50;99.90
7046;DHT22;3564;53.326;10.356;2022-10-10T08:30:48;12.60;99.90
7046;DHT22;3564;53.326;10.356;2022-10-10T08:33:14;12.60;99.90
7046;DHT22;3564;53.326;10.356;2022-10-10T08:35:39;12.60;99.90
7046;DHT22;3564;53.326;10.356;2022-10-10T08:38:05;12.70;99.90
7046;DHT22;3564;53.326;10.356;2022-10-10T08:40:31;12.80;99.90
7046;DHT22;3564;53.326;10.356;2022-10-10T08:43:01;12.80;99.90
7046;DHT22;3564;53.326;10.356;2022-10-10T08:45:28;12.90;99.90
7046;DHT22;3564;53.326;10.356;2022-10-10T08:48:12;12.90;99.90
7046;DHT22;3564;53.326;10.356;2022-10-10T08:51:06;12.90;99.90
7046;DHT22;3564;53.326;10.356;2022-10-10T08:53:35;13.00;99.90
7046;DHT22;3564;53.326;10.356;2022-10-10T08:56:17;13.10;99.90
7046;DHT22;3564;53.326;10.356;2022-10-10T08:58:49;13.10;99.90
7046;DHT22;3564;53.326;10.356;2022-10-10T09:01:26;13.20;99.90
7046;DHT22;3564;53.326;10.356;2022-10-10T09:03:55;13.20;99.90
7046;DHT22;3564;53.326;10.356;2022-10-10T09:09:06;13.40;99.90
7046;DHT22;3564;53.326;10.356;2022-10-10T09:22:57;13.80;99.90
7046;DHT22;3564;53.326;10.356;2022-10-10T09:25:29;14.00;99.90
7046;DHT22;3564;53.326;10.356;2022-10-10T09:28:04;14.10;99.90
7046;DHT22;3564;53.326;10.356;2022-10-10T09:30:34;14.20;99.90
7046;DHT22;3564;53.326;10.356;2022-10-10T09:35:55;14.30;99.90
7046;DHT22;3564;53.326;10.356;2022-10-10T09:38:30;14.50;99.90
7046;DHT22;3564;53.326;10.356;2022-10-10T09:43:33;14.60;99.90
7046;DHT22;3564;53.326;10.356;2022-10-10T09:45:59;14.70;99.90
7046;DHT22;3564;53.326;10.356;2022-10-10T09:48:53;14.80;99.80
7046;DHT22;3564;53.326;10.356;2022-10-10T09:51:19;14.90;99.70
7046;DHT22;3564;53.326;10.356;2022-10-10T09:53:46;15.00;99.60
7046;DHT22;3564;53.326;10.356;2022-10-10T09:56:21;15.10;99.60
7046;DHT22;3564;53.326;10.356;2022-10-10T09:58:49;15.20;99.70
7046;DHT22;3564;53.326;10.356;2022-10-10T10:03:41;15.40;99.60
7046;DHT22;3564;53.326;10.356;2022-10-10T10:06:12;15.50;99.60
7046;DHT22;3564;53.326;10.356;2022-10-10T10:08:39;15.70;99.60
7046;DHT22;3564;53.326;10.356;2022-10-10T10:11:24;15.80;99.50
7046;DHT22;3564;53.326;10.356;2022-10-10T10:13:55;15.90;99.40
7046;DHT22;3564;53.326;10.356;2022-10-10T10:16:36;16.00;99.20
7046;DHT22;3564;53.326;10.356;2022-10-10T10:19:03;16.20;99.00
7046;DHT22;3564;53.326;10.356;2022-10-10T10:21:29;16.30;98.60
7046;DHT22;3564;53.326;10.356;2022-10-10T10:24:00;16.40;98.60
7046;DHT22;3564;53.326;10.356;2022-10-10T10:26:47;16.50;98.70
7046;DHT22;3564;53.326;10.356;2022-10-10T10:29:31;16.60;98.70
7046;DHT22;3564;53.326;10.356;2022-10-10T10:32:17;16.60;98.60
7046;DHT22;3564;53.326;10.356;2022-10-10T10:37:24;16.80;98.30
7046;DHT22;3564;53.326;10.356;2022-10-10T10:45:57;17.10;98.40
7046;DHT22;3564;53.326;10.356;2022-10-10T10:48:46;17.10;97.90
7046;DHT22;3564;53.326;10.356;2022-10-10T10:56:51;17.30;97.90
7046;DHT22;3564;53.326;10.356;2022-10-10T11:00:18;17.30;97.90
7046;DHT22;3564;53.326;10.356;2022-10-10T11:02:40;17.40;97.80
7046;DHT22;3564;53.326;10.356;2022-10-10T11:05:34;17.40;98.00
7046;DHT22;3564;53.326;10.356;2022-10-10T11:10:53;17.50;97.40
7046;DHT22;3564;53.326;10.356;2022-10-10T11:13:35;17.50;97.00
7046;DHT22;3564;53.326;10.356;2022-10-10T11:21:49;17.60;96.90
7046;DHT22;3564;53.326;10.356;2022-10-10T11:27:16;17.70;97.20
7046;DHT22;3564;53.326;10.356;2022-10-10T11:30:06;17.70;97.10
7046;DHT22;3564;53.326;10.356;2022-10-10T11:38:10;17.70;96.20
7046;DHT22;3564;53.326;10.356;2022-10-10T11:43:51;17.70;96.20
7046;DHT22;3564;53.326;10.356;2022-10-10T11:48:57;17.70;96.20
7046;DHT22;3564;53.326;10.356;2022-10-10T11:54:40;17.80;96.30
7046;DHT22;3564;53.326;10.356;2022-10-10T11:57:22;17.80;96.00
7046;DHT22;3564;53.326;10.356;2022-10-10T12:00:02;17.80;96.20
7046;DHT22;3564;53.326;10.356;2022-10-10T12:02:34;17.90;96.50
7046;DHT22;3564;53.326;10.356;2022-10-10T12:05:06;17.90;96.30
7046;DHT22;3564;53.326;10.356;2022-10-10T12:10:24;17.90;95.90
7046;DHT22;3564;53.326;10.356;2022-10-10T12:12:53;17.90;95.90
7046;DHT22;3564;53.326;10.356;2022-10-10T12:15:33;18.00;95.60
7046;DHT22;3564;53.326;10.356;2022-10-10T12:18:00;18.00;95.90
7046;DHT22;3564;53.326;10.356;2022-10-10T12:20:34;18.10;96.00
7046;DHT22;3564;53.326;10.356;2022-10-10T12:23:28;18.10;96.00
7046;DHT22;3564;53.326;10.356;2022-10-10T12:25:54;18.20;95.70
7046;DHT22;3564;53.326;10.356;2022-10-10T12:28:35;18.20;95.40
7046;DHT22;3564;53.326;10.356;2022-10-10T12:35:55;18.40;95.50
7046;DHT22;3564;53.326;10.356;2022-10-10T12:38:26;18.40;95.40
7046;DHT22;3564;53.326;10.356;2022-10-10T12:41:03;18.40;95.70
7046;DHT22;3564;53.326;10.356;2022-10-10T12:43:50;18.40;95.60
7046;DHT22;3564;53.326;10.356;2022-10-10T12:46:35;18.40;95.70
7046;DHT22;3564;53.326;10.356;2022-10-10T12:51:39;18.40;96.00
7046;DHT22;3564;53.326;10.356;2022-10-10T12:54:05;18.50;95.90
7046;DHT22;3564;53.326;10.356;2022-10-10T12:56:38;18.60;96.20
7046;DHT22;3564;53.326;10.356;2022-10-10T12:59:21;18.60;96.00
7046;DHT22;3564;53.326;10.356;2022-10-10T13:02:26;18.60;96.00
7046;DHT22;3564;53.326;10.356;2022-10-10T13:04:55;18.70;95.90
7046;DHT22;3564;53.326;10.356;2022-10-10T13:07:22;18.70;95.90
7046;DHT22;3564;53.326;10.356;2022-10-10T13:09:50;18.70;96.10
7046;DHT22;3564;53.326;10.356;2022-10-10T13:12:34;18.70;96.20
7046;DHT22;3564;53.326;10.356;2022-10-10T13:15:00;18.60;95.70
7046;DHT22;3564;53.326;10.356;2022-10-10T13:17:34;18.60;95.90
7046;DHT22;3564;53.326;10.356;2022-10-10T13:20:03;18.60;95.90
7046;DHT22;3564;53.326;10.356;2022-10-10T13:22:30;18.60;96.00
7046;DHT22;3564;53.326;10.356;2022-10-10T13:24:58;18.70;96.20
7046;DHT22;3564;53.326;10.356;2022-10-10T13:27:26;18.70;96.00
7046;DHT22;3564;53.326;10.356;2022-10-10T13:29:54;18.70;95.90
7046;DHT22;3564;53.326;10.356;2022-10-10T13:32:23;18.60;96.20
7046;DHT22;3564;53.326;10.356;2022-10-10T13:34:55;18.70;96.00
7046;DHT22;3564;53.326;10.356;2022-10-10T13:37:22;18.60;96.10
7046;DHT22;3564;53.326;10.356;2022-10-10T13:39:49;18.70;96.20
7046;DHT22;3564;53.326;10.356;2022-10-10T13:42:36;18.80;96.30
7046;DHT22;3564;53.326;10.356;2022-10-10T13:58:48;18.80;95.60
7046;DHT22;3564;53.326;10.356;2022-10-10T14:03:57;18.80;95.50
7046;DHT22;3564;53.326;10.356;2022-10-10T14:06:26;18.80;95.40
7046;DHT22;3564;53.326;10.356;2022-10-10T14:08:55;18.80;95.60
7046;DHT22;3564;53.326;10.356;2022-10-10T14:11:25;18.80;95.40
7046;DHT22;3564;53.326;10.356;2022-10-10T14:14:16;18.90;95.40
7046;DHT22;3564;53.326;10.356;2022-10-10T14:16:42;18.90;95.20
7046;DHT22;3564;53.326;10.356;2022-10-10T14:19:17;18.80;95.30
7046;DHT22;3564;53.326;10.356;2022-10-10T14:21:43;18.80;95.30
7046;DHT22;3564;53.326;10.356;2022-10-10T14:24:09;18.80;95.30
7046;DHT22;3564;53.326;10.356;2022-10-10T14:26:35;18.90;95.40
7046;DHT22;3564;53.326;10.356;2022-10-10T14:29:01;18.90;95.50
7046;DHT22;3564;53.326;10.356;2022-10-10T14:31:26;18.90;95.60
7046;DHT22;3564;53.326;10.356;2022-10-10T14:33:53;18.90;95.50
7046;DHT22;3564;53.326;10.356;2022-10-10T14:36:19;18.90;95.40
7046;DHT22;3564;53.326;10.356;2022-10-10T14:38:45;19.00;95.20
7046;DHT22;3564;53.326;10.356;2022-10-10T14:41:11;19.00;94.90
7046;DHT22;3564;53.326;10.356;2022-10-10T14:43:38;19.00;94.40
7046;DHT22;3564;53.326;10.356;2022-10-10T14:46:03;19.00;94.20
7046;DHT22;3564;53.326;10.356;2022-10-10T14:48:30;19.10;94.10
7046;DHT22;3564;53.326;10.356;2022-10-10T14:50:56;19.10;94.10
7046;DHT22;3564;53.326;10.356;2022-10-10T14:53:22;19.10;94.20
7046;DHT22;3564;53.326;10.356;2022-10-10T14:55:49;19.00;94.10
7046;DHT22;3564;53.326;10.356;2022-10-10T14:58:20;19.00;94.10
7046;DHT22;3564;53.326;10.356;2022-10-10T15:00:47;19.00;94.10
7046;DHT22;3564;53.326;10.356;2022-10-10T15:03:14;19.00;94.20
7046;DHT22;3564;53.326;10.356;2022-10-10T15:05:40;19.00;94.30
7046;DHT22;3564;53.326;10.356;2022-10-10T15:08:06;19.00;94.40
7046;DHT22;3564;53.326;10.356;2022-10-10T15:10:32;18.90;94.20
7046;DHT22;3564;53.326;10.356;2022-10-10T15:12:58;18.90;94.20
7046;DHT22;3564;53.326;10.356;2022-10-10T15:15:23;18.90;94.30
7046;DHT22;3564;53.326;10.356;2022-10-10T15:17:49;18.80;94.20
7046;DHT22;3564;53.326;10.356;2022-10-10T15:20:14;18.80;94.40
7046;DHT22;3564;53.326;10.356;2022-10-10T15:22:40;18.80;94.40
7046;DHT22;3564;53.326;10.356;2022-10-10T15:25:07;18.80;94.40
7046;DHT22;3564;53.326;10.356;2022-10-10T15:27:34;18.70;94.50
7046;DHT22;3564;53.326;10.356;2022-10-10T15:30:00;18.70;94.50
7046;DHT22;3564;53.326;10.356;2022-10-10T15:32:25;18.60;94.60
7046;DHT22;3564;53.326;10.356;2022-10-10T15:34:51;18.60;94.60
7046;DHT22;3564;53.326;10.356;2022-10-10T15:37:18;18.60;94.70
7046;DHT22;3564;53.326;10.356;2022-10-10T15:39:44;18.60;94.80
7046;DHT22;3564;53.326;10.356;2022-10-10T15:42:11;18.50;94.90
7046;DHT22;3564;53.326;10.356;2022-10-10T15:44:36;18.50;95.00
7046;DHT22;3564;53.326;10.356;2022-10-10T15:47:04;18.50;95.10
7046;DHT22;3564;53.326;10.356;2022-10-10T15:49:30;18.50;95.10
7046;DHT22;3564;53.326;10.356;2022-10-10T15:51:55;18.40;95.20
7046;DHT22;3564;53.326;10.356;2022-10-10T15:54:21;18.30;95.40
7046;DHT22;3564;53.326;10.356;2022-10-10T15:56:46;18.30;95.40
7046;DHT22;3564;53.326;10.356;2022-10-10T15:59:12;18.30;95.50
7046;DHT22;3564;53.326;10.356;2022-10-10T16:01:38;18.30;95.60
7046;DHT22;3564;53.326;10.356;2022-10-10T16:04:05;18.30;95.70
7046;DHT22;3564;53.326;10.356;2022-10-10T16:06:31;18.20;95.80
7046;DHT22;3564;53.326;10.356;2022-10-10T16:08:57;18.20;96.00
7046;DHT22;3564;53.326;10.356;2022-10-10T16:11:24;18.10;96.10
7046;DHT22;3564;53.326;10.356;2022-10-10T16:13:52;18.00;96.20
7046;DHT22;3564;53.326;10.356;2022-10-10T16:16:19;17.90;96.30
7046;DHT22;3564;53.326;10.356;2022-10-10T16:18:45;17.80;96.30
7046;DHT22;3564;53.326;10.356;2022-10-10T16:21:17;17.80;96.70
7046;DHT22;3564;53.326;10.356;2022-10-10T16:23:43;17.70;96.50
7046;DHT22;3564;53.326;10.356;2022-10-10T16:26:16;17.60;96.30
7046;DHT22;3564;53.326;10.356;2022-10-10T16:28:43;17.50;96.40
7046;DHT22;3564;53.326;10.356;2022-10-10T16:31:11;17.50;96.40
7046;DHT22;3564;53.326;10.356;2022-10-10T16:33:38;17.50;96.50
7046;DHT22;3564;53.326;10.356;2022-10-10T16:36:10;17.50;96.40
7046;DHT22;3564;53.326;10.356;2022-10-10T16:38:36;17.50;96.40
7046;DHT22;3564;53.326;10.356;2022-10-10T16:41:03;17.60;96.40
7046;DHT22;3564;53.326;10.356;2022-10-10T16:43:29;17.60;96.50
7046;DHT22;3564;53.326;10.356;2022-10-10T16:46:01;17.70;96.70
7046;DHT22;3564;53.326;10.356;2022-10-10T16:48:29;17.60;97.00
7046;DHT22;3564;53.326;10.356;2022-10-10T16:50:55;17.50;97.20
7046;DHT22;3564;53.326;10.356;2022-10-10T16:53:20;17.50;97.20
7046;DHT22;3564;53.326;10.356;2022-10-10T16:55:46;17.50;97.40
7046;DHT22;3564;53.326;10.356;2022-10-10T16:58:13;17.50;97.50
7046;DHT22;3564;53.326;10.356;2022-10-10T17:00:40;17.50;97.60
7046;DHT22;3564;53.326;10.356;2022-10-10T17:03:06;17.50;98.00
7046;DHT22;3564;53.326;10.356;2022-10-10T17:05:32;17.40;98.20
7046;DHT22;3564;53.326;10.356;2022-10-10T17:07:57;17.30;98.50
7046;DHT22;3564;53.326;10.356;2022-10-10T17:10:23;17.30;98.80
7046;DHT22;3564;53.326;10.356;2022-10-10T17:12:48;17.30;99.20
7046;DHT22;3564;53.326;10.356;2022-10-10T17:15:14;17.20;99.40
7046;DHT22;3564;53.326;10.356;2022-10-10T17:17:39;17.20;99.90
7046;DHT22;3564;53.326;10.356;2022-10-10T17:20:06;17.20;99.80
7046;DHT22;3564;53.326;10.356;2022-10-10T17:22:31;17.20;99.90
7046;DHT22;3564;53.326;10.356;2022-10-10T17:24:57;17.10;99.90
7046;DHT22;3564;53.326;10.356;2022-10-10T17:27:23;17.10;99.90
7046;DHT22;3564;53.326;10.356;2022-10-10T17:29:53;16.90;99.90
7046;DHT22;3564;53.326;10.356;2022-10-10T17:32:19;16.80;99.90
7046;DHT22;3564;53.326;10.356;2022-10-10T17:34:45;16.60;99.90
7046;DHT22;3564;53.326;10.356;2022-10-10T17:37:10;16.60;99.90
7046;DHT22;3564;53.326;10.356;2022-10-10T17:39:36;16.50;99.90
7046;DHT22;3564;53.326;10.356;2022-10-10T17:42:02;16.50;99.90
7046;DHT22;3564;53.326;10.356;2022-10-10T17:44:29;16.40;99.90
7046;DHT22;3564;53.326;10.356;2022-10-10T17:46:55;16.30;99.90
7046;DHT22;3564;53.326;10.356;2022-10-10T17:49:20;16.20;99.90
7046;DHT22;3564;53.326;10.356;2022-10-10T17:51:46;16.20;99.90
7046;DHT22;3564;53.326;10.356;2022-10-10T17:54:12;16.10;99.90
7046;DHT22;3564;53.326;10.356;2022-10-10T17:56:38;16.00;99.90